createdAt,value
2023-04-29T00:02:00.348Z,82.30
2023-04-29T00:04:35.042Z,82.38
2023-04-29T00:07:09.479Z,81.99
2023-04-29T00:09:42.285Z,81.80
2023-04-29T00:12:14.993Z,82.04
2023-04-29T00:14:47.683Z,81.92
2023-04-29T00:17:20.430Z,81.92
2023-04-29T00:19:54.949Z,81.88
2023-04-29T00:22:28.030Z,81.69
2023-04-29T00:25:00.907Z,82.23
2023-04-29T00:27:33.713Z,82.09
2023-04-29T00:30:08.263Z,82.38
2023-04-29T00:32:41.009Z,82.51
2023-04-29T00:35:15.152Z,82.32
2023-04-29T00:37:48.233Z,82.28
2023-04-29T00:40:21.054Z,82.23
2023-04-29T00:42:53.988Z,82.04
2023-04-29T00:45:27.637Z,82.08
2023-04-29T00:48:00.382Z,82.11
2023-04-29T00:50:34.751Z,81.83
2023-04-29T00:53:08.296Z,81.82
2023-04-29T00:55:42.465Z,81.84
2023-04-29T00:58:15.619Z,81.77
2023-04-29T01:00:49.622Z,81.91
2023-04-29T01:03:23.952Z,82.00
2023-04-29T01:06:04.676Z,82.10
2023-04-29T01:08:42.400Z,82.04
2023-04-29T01:11:17.443Z,82.22
2023-04-29T01:13:51.713Z,82.13
2023-04-29T01:16:26.529Z,82.32
2023-04-29T01:19:01.496Z,82.33
2023-04-29T01:21:46.357Z,82.35
2023-04-29T01:24:20.573Z,82.26
2023-04-29T01:26:57.353Z,82.45
2023-04-29T01:29:34.371Z,82.50
2023-04-29T01:32:09.327Z,82.20
2023-04-29T01:34:45.749Z,82.27
2023-04-29T01:37:21.485Z,82.13
2023-04-29T01:39:59.241Z,82.19
2023-04-29T01:42:37.528Z,82.04
2023-04-29T01:45:12.025Z,82.39
2023-04-29T01:47:46.424Z,82.31
2023-04-29T01:50:19.142Z,82.35
2023-04-29T01:52:52.162Z,82.59
2023-04-29T01:55:26.308Z,82.51
2023-04-29T01:57:59.283Z,82.55
2023-04-29T02:00:32.059Z,82.58
2023-04-29T02:03:05.256Z,82.36
2023-04-29T02:05:38.119Z,82.21
2023-04-29T02:08:10.910Z,82.15
2023-04-29T02:10:52.482Z,82.22
2023-04-29T02:13:25.340Z,82.09
2023-04-29T02:15:58.680Z,81.95
2023-04-29T02:18:31.409Z,81.77
2023-04-29T02:21:04.172Z,81.71
2023-04-29T02:23:37.632Z,81.69
2023-04-29T02:26:12.181Z,81.57
2023-04-29T02:28:44.849Z,81.96
2023-04-29T02:31:17.694Z,81.74
2023-04-29T02:33:50.606Z,81.78
2023-04-29T02:36:24.707Z,82.00
2023-04-29T02:38:57.442Z,82.04
2023-04-29T02:41:31.963Z,81.95
2023-04-29T02:44:04.865Z,82.09
2023-04-29T02:46:39.497Z,81.98
2023-04-29T02:49:12.771Z,82.00
2023-04-29T02:51:45.480Z,81.78
2023-04-29T02:54:18.315Z,81.93
2023-04-29T02:56:52.382Z,82.00
2023-04-29T02:59:25.363Z,81.91
2023-04-29T03:01:58.162Z,81.88
2023-04-29T03:04:31.012Z,82.00
2023-04-29T03:07:04.948Z,81.74
2023-04-29T03:09:37.592Z,82.01
2023-04-29T03:12:11.748Z,81.79
2023-04-29T03:14:44.465Z,81.71
2023-04-29T03:17:17.148Z,81.58
2023-04-29T03:19:50.181Z,81.81
2023-04-29T03:22:23.025Z,81.54
2023-04-29T03:24:56.202Z,81.76
2023-04-29T03:27:30.407Z,81.62
2023-04-29T03:30:03.502Z,81.33
2023-04-29T03:32:36.453Z,81.28
2023-04-29T03:35:14.090Z,81.05
2023-04-29T03:37:48.183Z,80.89
2023-04-29T03:40:20.903Z,80.61
2023-04-29T03:42:54.996Z,80.56
2023-04-29T03:45:27.694Z,80.75
2023-04-29T03:48:00.526Z,80.63
2023-04-29T03:50:33.287Z,80.66
2023-04-29T03:53:06.437Z,80.75
2023-04-29T03:55:39.144Z,80.51
2023-04-29T03:58:13.367Z,80.52
2023-04-29T04:00:46.969Z,80.58
2023-04-29T04:03:20.152Z,80.60
2023-04-29T04:05:53.509Z,80.57
2023-04-29T04:08:26.845Z,80.59
2023-04-29T04:11:03.188Z,80.58
2023-04-29T04:13:37.399Z,80.38
2023-04-29T04:16:10.924Z,80.53
2023-04-29T04:18:43.740Z,80.44
2023-04-29T04:21:16.462Z,80.60
2023-04-29T04:23:49.119Z,80.35
2023-04-29T04:26:23.102Z,80.53
2023-04-29T04:28:57.165Z,80.54
2023-04-29T04:31:30.126Z,80.07
2023-04-29T04:34:03.134Z,80.33
2023-04-29T04:36:35.816Z,80.62
2023-04-29T04:39:08.611Z,80.75
2023-04-29T04:41:41.354Z,81.21
2023-04-29T04:44:15.537Z,81.17
2023-04-29T04:46:48.264Z,81.39
2023-04-29T04:49:21.060Z,81.70
2023-04-29T04:51:54.122Z,81.77
2023-04-29T04:54:26.955Z,81.72
2023-04-29T04:56:59.806Z,82.03
2023-04-29T04:59:34.554Z,81.93
2023-04-29T05:02:08.701Z,81.75
2023-04-29T05:04:41.731Z,81.89
2023-04-29T05:07:14.955Z,81.71
2023-04-29T05:09:47.683Z,82.03
2023-04-29T05:12:20.543Z,81.81
2023-04-29T05:14:55.859Z,81.96
2023-04-29T05:17:28.680Z,82.51
2023-04-29T05:20:01.444Z,83.20
2023-04-29T05:22:34.176Z,84.04
2023-04-29T05:25:07.264Z,85.39
2023-04-29T05:27:40.338Z,86.34
2023-04-29T05:30:15.963Z,87.67
2023-04-29T05:32:49.088Z,88.63
2023-04-29T05:35:22.117Z,89.03
2023-04-29T05:37:54.800Z,88.74
2023-04-29T05:40:27.479Z,87.78
2023-04-29T05:43:00.166Z,86.48
2023-04-29T05:45:34.618Z,85.75
2023-04-29T05:48:07.726Z,85.14
2023-04-29T05:50:40.937Z,85.12
2023-04-29T05:53:13.820Z,84.90
2023-04-29T05:55:48.019Z,84.91
2023-04-29T05:58:21.875Z,84.89
2023-04-29T06:00:56.825Z,84.61
2023-04-29T06:03:31.375Z,84.33
2023-04-29T06:06:04.809Z,83.98
2023-04-29T06:08:37.693Z,82.92
2023-04-29T06:11:10.382Z,82.36
2023-04-29T06:13:43.126Z,81.73
2023-04-29T06:16:17.493Z,81.58
2023-04-29T06:18:50.433Z,81.09
2023-04-29T06:21:23.335Z,80.74
2023-04-29T06:23:56.296Z,80.56
2023-04-29T06:26:29.066Z,80.12
2023-04-29T06:29:02.162Z,80.03
2023-04-29T06:31:38.431Z,79.46
2023-04-29T06:34:11.511Z,79.46
2023-04-29T06:36:44.230Z,78.43
2023-04-29T06:39:17.173Z,78.40
2023-04-29T06:41:49.792Z,78.11
2023-04-29T06:44:22.650Z,78.56
2023-04-29T06:46:57.203Z,78.31
2023-04-29T06:49:30.081Z,79.13
2023-04-29T06:52:03.116Z,79.29
2023-04-29T06:54:35.858Z,80.10
2023-04-29T06:57:08.508Z,80.33
2023-04-29T06:59:41.384Z,80.53
2023-04-29T07:02:16.407Z,81.14
2023-04-29T07:04:50.432Z,81.54
2023-04-29T07:07:23.197Z,82.59
2023-04-29T07:09:56.313Z,83.13
2023-04-29T07:12:29.266Z,83.71
2023-04-29T07:15:02.737Z,83.55
2023-04-29T07:17:37.199Z,83.64
2023-04-29T07:20:10.517Z,83.20
2023-04-29T07:22:43.545Z,82.99
2023-04-29T07:25:16.344Z,82.64
2023-04-29T07:27:49.029Z,82.39
2023-04-29T07:30:21.788Z,81.52
2023-04-29T07:32:55.863Z,82.53
2023-04-29T07:35:28.750Z,81.79
2023-04-29T07:38:01.446Z,81.77
2023-04-29T07:40:34.220Z,81.49
2023-04-29T07:43:09.104Z,81.96
2023-04-29T07:45:41.815Z,81.54
2023-04-29T07:48:15.900Z,82.88
2023-04-29T07:50:48.705Z,82.03
2023-04-29T07:53:21.854Z,81.68
2023-04-29T07:55:54.607Z,81.38
2023-04-29T07:58:29.173Z,82.17
2023-04-29T08:01:06.342Z,81.90
2023-04-29T08:03:41.823Z,81.86
2023-04-29T08:06:15.192Z,81.99
2023-04-29T08:08:47.880Z,81.60
2023-04-29T08:11:21.279Z,80.05
2023-04-29T08:13:53.988Z,78.74
2023-04-29T08:16:27.127Z,78.80
2023-04-29T08:19:01.256Z,78.06
2023-04-29T08:21:34.829Z,78.16
2023-04-29T08:24:07.691Z,78.89
2023-04-29T08:26:41.070Z,78.11
2023-04-29T08:29:13.999Z,79.61
2023-04-29T08:31:46.969Z,78.78
2023-04-29T08:34:21.410Z,79.19
2023-04-29T08:36:54.163Z,78.39
2023-04-29T08:39:26.903Z,77.98
2023-04-29T08:42:00.210Z,77.10
2023-04-29T08:44:34.114Z,77.59
2023-04-29T08:47:07.509Z,77.00
2023-04-29T08:49:42.046Z,76.92
2023-04-29T08:52:14.778Z,77.17
2023-04-29T08:54:47.456Z,76.11
2023-04-29T08:57:20.614Z,77.50
2023-04-29T08:59:53.623Z,79.60
2023-04-29T09:02:27.318Z,78.74
2023-04-29T09:05:05.788Z,79.29
2023-04-29T09:07:39.290Z,79.93
2023-04-29T09:10:12.443Z,79.01
2023-04-29T09:12:46.199Z,77.57
2023-04-29T09:15:19.036Z,78.59
2023-04-29T09:17:51.968Z,77.34
2023-04-29T09:20:29.989Z,77.63
2023-04-29T09:23:03.635Z,78.08
2023-04-29T09:25:36.647Z,76.87
2023-04-29T09:28:15.996Z,74.44
2023-04-29T09:30:50.691Z,76.74
2023-04-29T09:33:23.696Z,79.54
2023-04-29T09:35:57.736Z,78.76
2023-04-29T09:38:30.403Z,78.82
2023-04-29T09:41:12.099Z,79.83
2023-04-29T09:43:44.797Z,80.67
2023-04-29T09:46:17.825Z,78.90
2023-04-29T09:48:50.705Z,79.55
2023-04-29T09:51:25.087Z,78.84
2023-04-29T09:53:57.787Z,77.46
2023-04-29T09:56:36.156Z,77.31
2023-04-29T09:59:09.583Z,77.76
2023-04-29T10:01:42.288Z,74.23
2023-04-29T10:04:16.856Z,74.99
2023-04-29T10:06:52.500Z,75.70
2023-04-29T10:09:25.621Z,74.25
2023-04-29T10:11:58.369Z,75.59
2023-04-29T10:14:32.841Z,72.92
2023-04-29T10:17:09.795Z,76.27
2023-04-29T10:19:48.759Z,77.51
2023-04-29T10:22:28.608Z,78.08
2023-04-29T10:25:02.413Z,77.68
2023-04-29T10:27:35.410Z,78.01
2023-04-29T10:30:10.418Z,77.31
2023-04-29T10:32:50.294Z,78.16
2023-04-29T10:35:24.608Z,78.28
2023-04-29T10:38:02.569Z,77.29
2023-04-29T10:40:44.023Z,77.25
2023-04-29T10:43:17.000Z,73.95
2023-04-29T10:45:49.724Z,74.25
2023-04-29T10:48:24.621Z,74.89
2023-04-29T10:51:03.846Z,74.57
2023-04-29T10:53:58.070Z,73.33
2023-04-29T10:56:37.183Z,74.00
2023-04-29T10:59:17.141Z,73.60
2023-04-29T11:01:51.169Z,75.44
2023-04-29T11:04:24.254Z,76.47
2023-04-29T11:06:58.196Z,73.28
2023-04-29T11:09:34.263Z,77.47
2023-04-29T11:12:11.329Z,75.69
2023-04-29T11:14:44.835Z,78.13
2023-04-29T11:17:19.967Z,73.08
2023-04-29T11:19:53.359Z,73.70
2023-04-29T11:22:27.069Z,74.96
2023-04-29T11:25:02.042Z,76.25
2023-04-29T11:27:35.696Z,73.46
2023-04-29T11:30:09.042Z,74.37
2023-04-29T11:32:42.892Z,75.46
2023-04-29T11:35:16.887Z,75.47
2023-04-29T11:37:49.654Z,76.53
2023-04-29T11:40:23.813Z,75.50
2023-04-29T11:42:56.600Z,76.76
2023-04-29T11:45:29.367Z,78.46
2023-04-29T11:48:02.289Z,76.85
2023-04-29T11:50:36.446Z,78.76
2023-04-29T11:53:09.353Z,79.15
2023-04-29T11:55:45.734Z,80.40
2023-04-29T11:58:18.732Z,80.33
2023-04-29T12:00:52.009Z,77.35
2023-04-29T12:03:24.965Z,81.51
2023-04-29T12:05:58.522Z,80.49
2023-04-29T12:08:34.302Z,79.81
2023-04-29T12:11:08.964Z,79.51
2023-04-29T12:13:42.227Z,79.45
2023-04-29T12:16:15.102Z,78.71
2023-04-29T12:18:48.253Z,79.08
2023-04-29T12:21:21.223Z,79.03
2023-04-29T12:23:54.520Z,78.53
2023-04-29T12:26:30.467Z,75.97
2023-04-29T12:29:03.212Z,76.80
2023-04-29T12:31:36.546Z,76.48
2023-04-29T12:34:10.402Z,75.88
2023-04-29T12:36:43.367Z,77.15
2023-04-29T12:39:16.530Z,76.16
2023-04-29T12:41:50.704Z,76.63
2023-04-29T12:44:23.690Z,76.99
2023-04-29T12:46:58.446Z,77.02
2023-04-29T12:49:31.848Z,75.69
2023-04-29T12:52:05.050Z,76.60
2023-04-29T12:54:37.978Z,73.36
2023-04-29T12:57:12.655Z,74.37
2023-04-29T12:59:45.306Z,76.93
2023-04-29T13:02:18.103Z,75.37
2023-04-29T13:04:51.451Z,77.75
2023-04-29T13:07:24.327Z,72.38
2023-04-29T13:09:57.530Z,79.01
2023-04-29T13:12:31.593Z,77.84
2023-04-29T13:15:04.641Z,79.11
2023-04-29T13:17:37.735Z,76.94
2023-04-29T13:20:11.819Z,74.69
2023-04-29T13:22:44.762Z,73.88
2023-04-29T13:25:17.643Z,72.11
2023-04-29T13:27:51.708Z,73.92
2023-04-29T13:30:24.479Z,75.12
2023-04-29T13:33:03.133Z,78.97
2023-04-29T13:35:41.833Z,78.92
2023-04-29T13:38:14.754Z,77.02
2023-04-29T13:40:51.210Z,80.67
2023-04-29T13:43:36.620Z,71.38
2023-04-29T13:46:11.835Z,68.18
2023-04-29T13:49:17.428Z,73.68
2023-04-29T13:52:16.966Z,73.73
2023-04-29T13:59:51.638Z,72.65
2023-04-29T14:02:26.503Z,75.60
2023-04-29T14:04:59.825Z,72.34
2023-04-29T14:07:32.889Z,72.76
2023-04-29T14:10:06.312Z,69.43
2023-04-29T14:12:39.060Z,72.31
2023-04-29T14:15:13.730Z,65.99
2023-04-29T14:17:46.468Z,69.74
2023-04-29T14:20:19.195Z,70.88
2023-04-29T14:22:52.229Z,68.75
2023-04-29T14:25:26.146Z,68.69
2023-04-29T14:28:00.043Z,69.69
2023-04-29T14:30:34.219Z,60.09
2023-04-29T14:33:07.282Z,66.93
2023-04-29T14:35:40.133Z,68.36
2023-04-29T14:38:12.764Z,57.46
2023-04-29T14:40:45.696Z,58.96
2023-04-29T14:43:18.458Z,55.92
2023-04-29T14:45:52.554Z,56.60
2023-04-29T14:48:25.271Z,58.59
2023-04-29T14:50:57.931Z,59.77
2023-04-29T14:53:30.609Z,53.59
2023-04-29T14:56:03.809Z,60.82
2023-04-29T14:58:36.507Z,62.41
2023-04-29T15:01:10.575Z,55.08
2023-04-29T15:03:44.839Z,51.38
2023-04-29T15:06:17.893Z,55.94
2023-04-29T15:08:50.603Z,63.25
2023-04-29T15:11:24.129Z,62.63
2023-04-29T15:13:56.932Z,59.62
2023-04-29T15:16:32.113Z,60.15
2023-04-29T15:19:04.865Z,69.34
2023-04-29T15:21:37.520Z,74.32
2023-04-29T15:24:10.265Z,67.82
2023-04-29T15:26:43.410Z,72.38
2023-04-29T15:29:16.164Z,74.06
2023-04-29T15:31:50.290Z,67.45
2023-04-29T15:34:23.110Z,71.93
2023-04-29T15:36:56.165Z,72.71
2023-04-29T15:39:28.850Z,59.97
2023-04-29T15:42:01.945Z,68.25
2023-04-29T15:44:34.794Z,64.47
2023-04-29T15:47:09.128Z,68.01
2023-04-29T15:49:42.593Z,68.86
2023-04-29T15:52:15.278Z,71.52
2023-04-29T15:54:48.002Z,68.19
2023-04-29T15:57:21.100Z,63.17
2023-04-29T15:59:54.165Z,54.97
2023-04-29T16:02:28.472Z,66.52
2023-04-29T16:05:01.522Z,68.54
2023-04-29T16:07:35.550Z,71.42
2023-04-29T16:10:09.990Z,71.04
2023-04-29T16:12:43.075Z,69.79
2023-04-29T16:15:16.018Z,70.54
2023-04-29T16:17:50.643Z,65.44
2023-04-29T16:20:23.456Z,71.76
2023-04-29T16:22:56.108Z,72.81
2023-04-29T16:25:29.033Z,72.90
2023-04-29T16:28:01.833Z,66.40
2023-04-29T16:30:34.589Z,74.72
2023-04-29T16:33:09.311Z,74.06
2023-04-29T16:35:42.119Z,74.27
2023-04-29T16:38:14.812Z,62.56
2023-04-29T16:40:49.447Z,73.80
2023-04-29T16:43:23.274Z,74.32
2023-04-29T16:45:56.057Z,75.45
2023-04-29T16:48:31.478Z,73.49
2023-04-29T16:51:04.325Z,74.33
2023-04-29T16:53:37.224Z,72.40
2023-04-29T16:56:09.963Z,73.86
2023-04-29T16:58:42.653Z,72.20
2023-04-29T17:01:15.698Z,70.62
2023-04-29T17:03:50.312Z,68.88
2023-04-29T17:06:23.283Z,66.52
2023-04-29T17:08:56.767Z,65.26
2023-04-29T17:11:29.540Z,68.76
2023-04-29T17:14:03.374Z,71.84
2023-04-29T17:16:36.363Z,66.57
2023-04-29T17:19:10.578Z,63.02
2023-04-29T17:21:43.342Z,69.44
2023-04-29T17:24:16.357Z,72.04
2023-04-29T17:26:49.224Z,66.67
2023-04-29T17:29:21.961Z,68.76
2023-04-29T17:31:59.766Z,68.77
2023-04-29T17:34:34.993Z,69.35
2023-04-29T17:37:07.973Z,73.00
2023-04-29T17:39:40.658Z,74.11
2023-04-29T17:42:13.334Z,69.27
2023-04-29T17:44:46.082Z,73.22
2023-04-29T17:47:19.376Z,63.83
2023-04-29T17:49:54.457Z,73.36
2023-04-29T17:52:27.332Z,73.43
2023-04-29T17:55:00.156Z,71.97
2023-04-29T17:57:32.927Z,73.32
2023-04-29T18:00:07.456Z,65.74
2023-04-29T18:02:40.246Z,64.58
2023-04-29T18:05:14.601Z,69.87
2023-04-29T18:07:47.340Z,72.89
2023-04-29T18:10:20.105Z,72.38
2023-04-29T18:12:52.929Z,72.60
2023-04-29T18:15:25.640Z,74.48
2023-04-29T18:17:58.456Z,74.79
2023-04-29T18:20:32.593Z,72.99
2023-04-29T18:23:05.305Z,73.88
2023-04-29T18:25:38.853Z,70.93
2023-04-29T18:28:24.246Z,73.39
2023-04-29T18:30:58.127Z,73.89
2023-04-29T18:33:31.105Z,69.10
2023-04-29T18:36:05.445Z,74.14
2023-04-29T18:38:38.257Z,68.48
2023-04-29T18:41:12.091Z,69.26
2023-04-29T18:43:44.872Z,70.64
2023-04-29T18:46:17.654Z,68.01
2023-04-29T18:48:50.308Z,72.49
2023-04-29T18:51:24.378Z,70.07
2023-04-29T18:53:57.300Z,71.77
2023-04-29T18:56:30.070Z,72.72
2023-04-29T18:59:02.820Z,72.95
2023-04-29T19:01:35.622Z,72.94
2023-04-29T19:04:09.992Z,68.84
2023-04-29T19:06:44.583Z,70.55
2023-04-29T19:09:17.262Z,68.69
2023-04-29T19:11:49.949Z,66.85
2023-04-29T19:14:22.715Z,71.11
2023-04-29T19:16:55.972Z,67.48
2023-04-29T19:19:28.720Z,69.68
2023-04-29T19:22:02.898Z,70.15
2023-04-29T19:24:37.017Z,71.47
2023-04-29T19:27:09.819Z,72.66
2023-04-29T19:29:42.645Z,74.63
2023-04-29T19:32:15.310Z,71.93
2023-04-29T19:34:48.160Z,71.55
2023-04-29T19:37:22.202Z,72.49
2023-04-29T19:39:55.524Z,70.34
2023-04-29T19:42:28.327Z,72.64
2023-04-29T19:45:01.437Z,70.42
2023-04-29T19:47:34.292Z,71.49
2023-04-29T19:50:07.682Z,70.33
2023-04-29T19:52:41.736Z,72.27
2023-04-29T19:55:14.667Z,73.98
2023-04-29T19:57:47.366Z,72.71
2023-04-29T20:00:20.040Z,73.36
2023-04-29T20:02:53.490Z,75.47
2023-04-29T20:05:26.539Z,76.34
2023-04-29T20:08:00.667Z,76.70
2023-04-29T20:10:33.472Z,72.94
2023-04-29T20:13:06.168Z,75.63
2023-04-29T20:15:38.922Z,75.14
2023-04-29T20:18:11.770Z,76.44
2023-04-29T20:20:44.502Z,76.31
2023-04-29T20:23:18.820Z,75.39
2023-04-29T20:25:52.769Z,67.93
2023-04-29T20:28:25.639Z,71.98
2023-04-29T20:30:58.343Z,75.43
2023-04-29T20:33:31.072Z,75.52
2023-04-29T20:36:06.722Z,71.85
2023-04-29T20:38:40.897Z,74.93
2023-04-29T20:41:13.586Z,75.97
2023-04-29T20:43:46.208Z,75.19
2023-04-29T20:46:18.978Z,73.69
2023-04-29T20:48:51.691Z,73.09
2023-04-29T20:51:24.571Z,75.21
2023-04-29T20:53:58.964Z,75.32
2023-04-29T20:56:31.679Z,75.90
2023-04-29T20:59:04.336Z,71.35
2023-04-29T21:01:37.946Z,73.58
2023-04-29T21:04:10.771Z,76.24
2023-04-29T21:06:43.716Z,76.33
2023-04-29T21:09:18.792Z,75.81
2023-04-29T21:11:51.769Z,75.82
2023-04-29T21:14:24.457Z,75.34
2023-04-29T21:16:57.185Z,76.43
2023-04-29T21:19:29.794Z,76.05
2023-04-29T21:22:02.494Z,72.25
2023-04-29T21:24:36.604Z,66.53
2023-04-29T21:27:09.302Z,73.63
2023-04-29T21:29:42.101Z,75.56
2023-04-29T21:32:18.278Z,71.31
2023-04-29T21:34:50.935Z,74.47
2023-04-29T21:37:23.746Z,71.54
2023-04-29T21:40:00.279Z,73.06
2023-04-29T21:42:34.694Z,72.68
2023-04-29T21:45:08.092Z,71.61
2023-04-29T21:47:40.965Z,71.84
2023-04-29T21:50:13.703Z,72.95
2023-04-29T21:52:46.371Z,73.21
2023-04-29T21:55:20.528Z,65.16
2023-04-29T21:57:53.567Z,70.46
2023-04-29T22:00:33.062Z,69.47
2023-04-29T22:05:41.436Z,70.55
2023-04-29T22:08:14.135Z,72.90
2023-04-29T22:10:48.267Z,72.66
2023-04-29T22:13:20.973Z,73.61
2023-04-29T22:15:53.674Z,74.40
2023-04-29T22:18:26.368Z,74.39
2023-04-29T22:20:59.255Z,74.93
2023-04-29T22:23:31.997Z,73.82
2023-04-29T22:26:06.114Z,74.94
2023-04-29T22:28:38.757Z,75.75
2023-04-29T22:31:11.441Z,72.95
2023-04-29T22:33:44.145Z,73.98
2023-04-29T22:36:17.522Z,73.44
2023-04-29T22:38:50.342Z,73.37
2023-04-29T22:41:24.417Z,74.12
2023-04-29T22:43:57.906Z,73.76
2023-04-29T22:46:30.674Z,73.78
2023-04-29T22:49:03.534Z,74.16
2023-04-29T22:51:36.162Z,73.63
2023-04-29T22:54:09.132Z,72.24
2023-04-29T22:56:43.178Z,73.30
2023-04-29T22:59:15.893Z,74.03
2023-04-29T23:01:48.725Z,73.13
2023-04-29T23:04:23.047Z,73.48
2023-04-29T23:06:55.913Z,73.63
2023-04-29T23:09:28.876Z,73.97
2023-04-29T23:12:03.629Z,74.47
2023-04-29T23:14:36.338Z,74.37
2023-04-29T23:17:08.961Z,74.73
2023-04-29T23:19:42.482Z,75.60
2023-04-29T23:22:17.049Z,73.71
2023-04-29T23:24:49.735Z,73.64
2023-04-29T23:27:23.790Z,72.67
2023-04-29T23:29:56.641Z,72.86
2023-04-29T23:32:29.343Z,73.11
2023-04-29T23:35:02.177Z,73.05
2023-04-29T23:37:34.853Z,73.28
2023-04-29T23:40:07.913Z,73.64
2023-04-29T23:42:42.471Z,73.72
2023-04-29T23:45:15.231Z,74.31
2023-04-29T23:47:47.942Z,73.79
2023-04-29T23:50:20.688Z,74.50
2023-04-29T23:52:53.384Z,74.39
2023-04-29T23:55:26.405Z,74.03
2023-04-29T23:58:00.753Z,73.96
